createdAt,value
2022-10-11T00:02:19.286Z,7.40
2022-10-11T00:07:21.980Z,5.38
2022-10-11T00:12:23.589Z,5.50
2022-10-11T00:17:25.443Z,5.35
2022-10-11T00:22:27.828Z,8.20
2022-10-11T00:27:29.663Z,4.40
2022-10-11T00:32:34.081Z,4.80
2022-10-11T00:37:38.024Z,6.65
2022-10-11T00:42:39.887Z,7.30
2022-10-11T00:47:42.134Z,4.07
2022-10-11T00:52:50.066Z,3.88
2022-10-11T00:57:54.528Z,4.00
2022-10-11T01:02:57.733Z,5.55
2022-10-11T01:08:00.848Z,4.00
2022-10-11T01:13:35.760Z,3.63
2022-10-11T01:18:52.544Z,3.33
2022-10-11T01:24:08.786Z,3.53
2022-10-11T01:29:30.057Z,2.72
2022-10-11T01:34:47.946Z,4.18
2022-10-11T01:39:57.631Z,6.50
2022-10-11T01:45:00.229Z,4.30
2022-10-11T01:50:02.616Z,3.75
2022-10-11T01:55:24.024Z,3.85
2022-10-11T02:00:33.507Z,5.40
2022-10-11T02:05:57.460Z,3.95
2022-10-11T02:11:22.358Z,4.82
2022-10-11T02:16:30.266Z,5.15
2022-10-11T02:21:39.404Z,4.20
2022-10-11T02:26:43.870Z,4.40
2022-10-11T02:31:47.455Z,4.70
2022-10-11T02:37:02.251Z,5.13
2022-10-11T02:42:10.470Z,5.25
2022-10-11T02:47:13.105Z,4.88
2022-10-11T02:52:14.871Z,6.03
2022-10-11T02:57:16.902Z,8.73
2022-10-11T03:02:19.282Z,4.72
2022-10-11T03:07:20.906Z,6.75
2022-10-11T03:12:22.833Z,4.60
2022-10-11T03:17:36.050Z,6.88
2022-10-11T03:22:38.754Z,5.25
2022-10-11T03:27:40.383Z,6.80
2022-10-11T03:32:42.135Z,4.65
2022-10-11T03:37:44.020Z,7.57
2022-10-11T03:42:46.433Z,3.92
2022-10-11T03:47:48.333Z,3.47
2022-10-11T03:52:51.154Z,3.83
2022-10-11T03:57:52.800Z,5.15
2022-10-11T04:02:54.607Z,5.20
2022-10-11T04:07:56.624Z,7.22
2022-10-11T04:12:58.254Z,4.03
2022-10-11T04:17:59.984Z,5.00
2022-10-11T04:23:01.771Z,5.30
2022-10-11T04:28:03.501Z,8.50
2022-10-11T04:33:05.314Z,8.80
2022-10-11T04:38:06.954Z,8.85
2022-10-11T04:43:08.620Z,11.75
2022-10-11T04:48:10.287Z,10.73
2022-10-11T04:53:11.914Z,8.48
2022-10-11T04:58:13.509Z,8.95
2022-10-11T05:03:15.086Z,6.95
2022-10-11T05:08:16.936Z,9.10
2022-10-11T05:13:18.552Z,7.80
2022-10-11T05:18:20.471Z,10.15
2022-10-11T05:23:23.464Z,10.23
2022-10-11T05:28:26.009Z,9.70
2022-10-11T05:33:27.748Z,9.55
2022-10-11T05:38:29.454Z,9.23
2022-10-11T05:43:31.505Z,12.20
2022-10-11T05:48:34.737Z,9.50
2022-10-11T05:53:39.320Z,12.93
2022-10-11T05:58:41.249Z,8.30
2022-10-11T06:03:44.567Z,10.32
2022-10-11T06:08:46.608Z,8.52
2022-10-11T06:13:48.945Z,10.00
2022-10-11T06:18:54.698Z,12.02
2022-10-11T06:24:01.196Z,12.68
2022-10-11T06:29:03.749Z,11.45
2022-10-11T06:34:05.602Z,10.27
2022-10-11T06:39:07.487Z,11.50
2022-10-11T06:44:14.172Z,10.10
2022-10-11T06:49:20.672Z,16.52
2022-10-11T06:54:26.978Z,12.00
2022-10-11T06:59:32.412Z,19.02
2022-10-11T07:04:34.279Z,15.43
2022-10-11T07:09:37.342Z,15.15
2022-10-11T07:14:40.427Z,12.93
2022-10-11T07:19:42.040Z,16.92
2022-10-11T07:24:43.859Z,12.63
2022-10-11T07:29:45.520Z,12.60
2022-10-11T07:34:47.194Z,9.30
2022-10-11T07:39:49.390Z,13.35
2022-10-11T07:44:51.632Z,9.13
2022-10-11T07:49:53.226Z,9.73
2022-10-11T07:54:55.020Z,8.77
2022-10-11T07:59:56.802Z,10.77
2022-10-11T08:04:58.517Z,12.50
2022-10-11T08:10:00.143Z,10.75
2022-10-11T08:15:04.039Z,15.23
2022-10-11T08:20:05.966Z,13.52
2022-10-11T08:25:07.897Z,10.10
2022-10-11T08:30:10.490Z,10.90
2022-10-11T08:35:12.150Z,9.43
2022-10-11T08:40:21.345Z,10.27
2022-10-11T08:45:49.133Z,9.18
2022-10-11T08:50:54.557Z,10.13
2022-10-11T08:55:56.233Z,16.10
2022-10-11T09:00:59.366Z,15.27
2022-10-11T09:06:16.314Z,12.40
2022-10-11T09:11:24.897Z,12.57
2022-10-11T09:17:07.441Z,14.07
2022-10-11T09:22:24.789Z,8.32
2022-10-11T09:28:06.670Z,12.48
2022-10-11T09:33:19.086Z,14.90
2022-10-11T09:38:43.539Z,12.88
2022-10-11T09:43:48.556Z,14.80
2022-10-11T09:48:52.742Z,13.15
2022-10-11T09:54:06.425Z,13.35
2022-10-11T09:59:20.373Z,16.77
2022-10-11T10:04:21.997Z,11.35
2022-10-11T10:09:31.199Z,12.32
2022-10-11T10:14:32.817Z,9.80
2022-10-11T10:19:49.019Z,9.30
2022-10-11T10:24:51.955Z,10.07
2022-10-11T10:30:08.707Z,10.25
2022-10-11T10:35:26.215Z,10.05
2022-10-11T10:40:37.594Z,14.77
2022-10-11T10:46:14.075Z,8.75
2022-10-11T10:51:38.434Z,16.48
2022-10-11T10:57:03.265Z,10.07
2022-10-11T11:02:40.844Z,15.55
2022-10-11T11:08:00.355Z,14.02
2022-10-11T11:13:35.753Z,10.73
2022-10-11T11:18:43.656Z,13.27
2022-10-11T11:24:05.058Z,10.23
2022-10-11T11:29:24.435Z,10.70
2022-10-11T11:34:33.336Z,13.48
2022-10-11T11:39:44.986Z,12.65
2022-10-11T11:44:49.434Z,14.20
2022-10-11T11:50:00.001Z,9.10
2022-10-11T11:55:15.472Z,11.13
2022-10-11T12:00:23.486Z,11.25
2022-10-11T12:05:28.922Z,14.25
2022-10-11T12:10:36.692Z,13.90
2022-10-11T12:15:38.477Z,17.60
2022-10-11T12:20:42.009Z,8.73
2022-10-11T12:25:44.649Z,10.38
2022-10-11T12:30:50.929Z,8.25
2022-10-11T12:35:52.988Z,12.55
2022-10-11T12:41:10.699Z,8.98
2022-10-11T12:46:33.573Z,12.40
2022-10-11T12:51:57.181Z,6.93
2022-10-11T12:57:29.141Z,9.82
2022-10-11T13:02:42.674Z,10.98
2022-10-11T13:07:45.454Z,8.40
2022-10-11T13:12:49.085Z,10.05
2022-10-11T13:17:54.115Z,8.57
2022-10-11T13:22:57.034Z,10.05
2022-10-11T13:28:01.436Z,10.07
2022-10-11T13:33:09.525Z,11.10
2022-10-11T13:38:23.929Z,7.75
2022-10-11T13:43:28.574Z,9.93
2022-10-11T13:48:32.097Z,8.20
2022-10-11T13:53:34.286Z,8.27
2022-10-11T13:58:47.288Z,6.45
2022-10-11T14:04:17.345Z,8.02
2022-10-11T14:09:33.897Z,9.23
2022-10-11T14:14:35.798Z,9.82
2022-10-11T14:24:39.891Z,8.73
2022-10-11T14:30:00.261Z,7.47
2022-10-11T14:35:07.183Z,9.73
2022-10-11T14:40:18.059Z,8.73
2022-10-11T14:45:21.242Z,9.27
2022-10-11T14:50:31.966Z,7.20
2022-10-11T14:55:36.710Z,8.73
2022-10-11T15:00:38.391Z,7.72
2022-10-11T15:05:40.259Z,11.63
2022-10-11T15:10:42.170Z,11.38
2022-10-11T15:15:43.851Z,11.90
2022-10-11T15:20:46.711Z,9.63
2022-10-11T15:25:48.384Z,11.95
2022-10-11T15:30:49.990Z,9.02
2022-10-11T15:35:51.674Z,8.73
2022-10-11T15:40:54.868Z,9.07
2022-10-11T15:45:58.032Z,11.77
2022-10-11T15:50:59.897Z,11.30
2022-10-11T15:56:05.123Z,6.93
2022-10-11T16:01:14.802Z,11.55
2022-10-11T16:06:17.705Z,10.95
2022-10-11T16:11:19.525Z,12.52
2022-10-11T16:16:21.105Z,13.85
2022-10-11T16:21:24.159Z,8.52
2022-10-11T16:26:25.703Z,9.43
2022-10-11T16:31:27.808Z,9.60
2022-10-11T16:36:32.497Z,10.68
2022-10-11T16:41:34.263Z,7.50
2022-10-11T16:46:35.923Z,12.90
2022-10-11T16:51:37.458Z,10.40
2022-10-11T16:56:40.213Z,10.18
2022-10-11T17:01:42.775Z,9.50
2022-10-11T17:06:44.973Z,6.65
2022-10-11T17:11:46.716Z,7.68
2022-10-11T17:16:48.405Z,8.55
2022-10-11T17:21:50.216Z,11.63
2022-10-11T17:26:53.401Z,12.88
2022-10-11T17:31:55.464Z,8.02
2022-10-11T17:36:57.170Z,9.50
2022-10-11T17:42:03.395Z,9.82
2022-10-11T17:47:05.182Z,12.95
2022-10-11T17:52:06.808Z,10.75
2022-10-11T17:57:10.160Z,13.98
2022-10-11T18:02:11.799Z,10.45
2022-10-11T18:07:13.567Z,10.23
2022-10-11T18:12:15.186Z,10.60
2022-10-11T18:17:17.809Z,14.80
2022-10-11T18:22:19.511Z,17.10
2022-10-11T18:27:21.334Z,13.55
2022-10-11T18:32:23.957Z,12.43
2022-10-11T18:37:28.143Z,15.40
2022-10-11T18:42:29.808Z,12.65
2022-10-11T18:47:31.397Z,14.52
2022-10-11T18:52:33.105Z,16.83
2022-10-11T18:57:34.913Z,16.17
2022-10-11T19:02:36.611Z,20.08
2022-10-11T19:07:40.222Z,18.48
2022-10-11T19:12:41.814Z,16.92
2022-10-11T19:17:43.700Z,14.45
2022-10-11T19:22:46.789Z,16.20
2022-10-11T19:27:48.387Z,19.20
2022-10-11T19:32:50.460Z,23.40
2022-10-11T19:37:52.093Z,20.80
2022-10-11T19:42:53.841Z,21.02
2022-10-11T19:47:55.431Z,17.17
2022-10-11T19:52:57.205Z,17.95
2022-10-11T19:57:58.869Z,18.65
2022-10-11T20:03:01.458Z,19.35
2022-10-11T20:08:04.251Z,16.83
2022-10-11T20:13:11.680Z,18.92
2022-10-11T20:18:13.423Z,25.83
2022-10-11T20:23:18.265Z,18.58
2022-10-11T20:28:20.283Z,18.15
2022-10-11T20:33:22.243Z,17.75
2022-10-11T20:38:24.247Z,16.77
2022-10-11T20:43:26.231Z,17.17
2022-10-11T20:48:30.093Z,19.95
2022-10-11T20:53:31.755Z,19.77
2022-10-11T20:58:34.470Z,16.77
2022-10-11T21:03:36.542Z,17.58
2022-10-11T21:08:39.536Z,16.38
2022-10-11T21:13:41.252Z,21.65
2022-10-11T21:18:42.906Z,18.38
2022-10-11T21:23:47.975Z,20.63
2022-10-11T21:28:49.934Z,21.85
2022-10-11T21:33:51.884Z,22.50
2022-10-11T21:38:53.766Z,21.38
2022-10-11T21:43:56.702Z,20.83
2022-10-11T21:48:58.679Z,22.70
2022-10-11T21:54:00.820Z,17.70
2022-10-11T21:59:06.555Z,16.75
2022-10-11T22:04:11.936Z,19.90
2022-10-11T22:09:13.590Z,18.88
2022-10-11T22:14:15.734Z,18.00
2022-10-11T22:19:17.391Z,19.70
2022-10-11T22:24:19.209Z,21.35
2022-10-11T22:29:21.225Z,16.23
2022-10-11T22:34:22.992Z,16.35
2022-10-11T22:39:24.673Z,16.23
2022-10-11T22:44:26.305Z,18.00
2022-10-11T22:49:28.619Z,16.10
2022-10-11T22:54:30.185Z,18.75
2022-10-11T22:59:32.957Z,19.10
2022-10-11T23:04:34.905Z,15.60
2022-10-11T23:09:36.564Z,18.75
2022-10-11T23:14:38.283Z,19.83
2022-10-11T23:19:40.376Z,22.73
2022-10-11T23:24:42.568Z,18.65
2022-10-11T23:29:46.120Z,17.63
2022-10-11T23:34:47.779Z,17.15
2022-10-11T23:39:49.620Z,16.85
2022-10-11T23:44:52.871Z,19.95
2022-10-11T23:49:54.621Z,17.95
2022-10-11T23:54:56.289Z,18.48
